createdAt,value
2023-07-04T00:01:26.216Z,96127.09
2023-07-04T00:03:55.167Z,96110.63
2023-07-04T00:06:23.945Z,96124.31
2023-07-04T00:08:51.691Z,96107.34
2023-07-04T00:11:20.567Z,96027.75
2023-07-04T00:13:48.694Z,96001.38
2023-07-04T00:16:15.834Z,96063.81
2023-07-04T00:18:43.430Z,96085.25
2023-07-04T00:21:18.388Z,96070.25
2023-07-04T00:23:47.425Z,96062.19
2023-07-04T00:26:18.146Z,96106.75
2023-07-04T00:28:45.964Z,96136.19
2023-07-04T00:31:15.500Z,96167.63
2023-07-04T00:33:43.222Z,96202.22
2023-07-04T00:36:11.807Z,96244.41
2023-07-04T00:38:39.772Z,96270.47
2023-07-04T00:41:09.804Z,96295.53
2023-07-04T00:43:47.260Z,96348.50
2023-07-04T00:46:16.374Z,96364.91
2023-07-04T00:48:46.204Z,96387.06
2023-07-04T00:51:23.067Z,96400.53
2023-07-04T00:53:54.405Z,96424.38
2023-07-04T00:56:25.825Z,96432.91
2023-07-04T00:58:54.725Z,96443.19
2023-07-04T01:01:21.961Z,96441.81
2023-07-04T01:03:49.500Z,96447.53
2023-07-04T01:06:32.021Z,96452.34
2023-07-04T01:09:01.837Z,96452.16
2023-07-04T01:11:34.621Z,96440.38
2023-07-04T01:14:04.515Z,96438.72
2023-07-04T01:16:32.440Z,96448.59
2023-07-04T01:18:59.775Z,96451.00
2023-07-04T01:21:28.424Z,96453.38
2023-07-04T01:23:58.238Z,96461.44
2023-07-04T01:26:51.424Z,96436.88
2023-07-04T01:29:19.276Z,96453.88
2023-07-04T01:31:47.306Z,96452.28
2023-07-04T01:34:16.074Z,96455.09
2023-07-04T01:36:43.569Z,96458.84
2023-07-04T01:39:16.156Z,96478.41
2023-07-04T01:41:45.787Z,96491.97
2023-07-04T01:44:13.769Z,96506.47
2023-07-04T01:46:40.980Z,96525.19
2023-07-04T01:49:08.225Z,96522.56
2023-07-04T01:51:36.850Z,96529.59
2023-07-04T01:54:04.917Z,96514.63
2023-07-04T01:56:33.241Z,96501.47
2023-07-04T01:59:00.829Z,96474.75
2023-07-04T02:01:28.213Z,96419.38
2023-07-04T02:03:55.296Z,96355.22
2023-07-04T02:06:22.450Z,96300.31
2023-07-04T02:08:49.581Z,96256.34
2023-07-04T02:11:16.764Z,96236.13
2023-07-04T02:13:43.906Z,96211.00
2023-07-04T02:16:10.977Z,96203.16
2023-07-04T02:18:38.279Z,96191.88
2023-07-04T02:21:07.613Z,96189.28
2023-07-04T02:23:34.803Z,96165.53
2023-07-04T02:26:01.907Z,96140.19
2023-07-04T02:28:29.210Z,96106.91
2023-07-04T02:30:59.946Z,96089.00
2023-07-04T02:33:28.453Z,96080.47
2023-07-04T02:35:56.541Z,96088.53
2023-07-04T02:38:23.960Z,96088.13
2023-07-04T02:40:53.234Z,96086.84
2023-07-04T02:43:21.080Z,96088.06
2023-07-04T02:45:48.674Z,96085.22
2023-07-04T02:48:16.502Z,96069.25
2023-07-04T02:50:44.517Z,96084.31
2023-07-04T02:53:12.054Z,96084.25
2023-07-04T02:55:39.258Z,96079.91
2023-07-04T02:58:08.269Z,96079.91
2023-07-04T03:00:37.133Z,96072.06
2023-07-04T03:03:04.846Z,96085.34
2023-07-04T03:05:34.038Z,96091.19
2023-07-04T03:08:01.158Z,96106.13
2023-07-04T03:10:28.537Z,96104.00
2023-07-04T03:12:56.716Z,96112.66
2023-07-04T03:15:27.023Z,96117.69
2023-07-04T03:17:54.549Z,96109.94
2023-07-04T03:20:22.234Z,96108.84
2023-07-04T03:22:52.789Z,96101.28
2023-07-04T03:25:20.906Z,96096.59
2023-07-04T03:27:51.365Z,96126.75
2023-07-04T03:30:23.276Z,96155.78
2023-07-04T03:32:54.284Z,96155.69
2023-07-04T03:35:21.468Z,96160.31
2023-07-04T03:37:48.968Z,96156.50
2023-07-04T03:40:16.107Z,96152.44
2023-07-04T03:42:43.188Z,96157.06
2023-07-04T03:45:10.828Z,96140.81
2023-07-04T03:47:38.076Z,96140.22
2023-07-04T03:50:07.298Z,96125.31
2023-07-04T03:52:34.526Z,96113.19
2023-07-04T03:55:01.829Z,96106.84
2023-07-04T03:57:29.224Z,96101.72
2023-07-04T03:59:57.375Z,96105.66
2023-07-04T04:02:24.492Z,96109.06
2023-07-04T04:04:51.735Z,96097.59
2023-07-04T04:07:18.993Z,96082.81
2023-07-04T04:09:46.339Z,96066.66
2023-07-04T04:12:13.472Z,96076.00
2023-07-04T04:14:40.564Z,96110.44
2023-07-04T04:17:07.693Z,96129.44
2023-07-04T04:19:34.888Z,96151.94
2023-07-04T04:22:02.242Z,96186.59
2023-07-04T04:24:29.499Z,96198.25
2023-07-04T04:26:58.260Z,96196.78
2023-07-04T04:29:25.426Z,96209.63
2023-07-04T04:31:52.501Z,96229.97
2023-07-04T04:34:21.799Z,96232.97
2023-07-04T04:36:48.971Z,96192.31
2023-07-04T04:39:16.067Z,96156.06
2023-07-04T04:41:43.291Z,96139.97
2023-07-04T04:44:10.794Z,96100.09
2023-07-04T04:46:41.762Z,96086.38
2023-07-04T04:49:09.226Z,96089.38
2023-07-04T04:51:36.324Z,96081.53
2023-07-04T04:54:03.556Z,96085.84
2023-07-04T04:56:30.902Z,96079.63
2023-07-04T04:58:57.957Z,96093.88
2023-07-04T05:01:26.163Z,96067.75
2023-07-04T05:03:54.735Z,95976.53
2023-07-04T05:06:22.521Z,95929.03
2023-07-04T05:08:49.703Z,95909.06
2023-07-04T05:11:17.172Z,95883.09
2023-07-04T05:13:47.835Z,95870.22
2023-07-04T05:16:16.920Z,95874.59
2023-07-04T05:18:44.957Z,95878.97
2023-07-04T05:21:13.449Z,95869.44
2023-07-04T05:23:41.979Z,95885.28
2023-07-04T05:26:16.981Z,95854.84
2023-07-04T05:28:44.583Z,95659.22
2023-07-04T05:31:16.573Z,95687.59
2023-07-04T05:33:44.121Z,95737.47
2023-07-04T05:36:15.778Z,95732.47
2023-07-04T05:38:43.329Z,95747.19
2023-07-04T05:41:11.675Z,95770.75
2023-07-04T05:43:39.352Z,95778.41
2023-07-04T05:46:06.988Z,95805.22
2023-07-04T05:48:37.653Z,95803.78
2023-07-04T05:51:06.207Z,95790.97
2023-07-04T05:53:34.919Z,95786.25
2023-07-04T05:56:06.881Z,95808.22
2023-07-04T05:58:34.703Z,95821.03
2023-07-04T06:01:05.975Z,95834.09
2023-07-04T06:03:33.203Z,95823.56
2023-07-04T06:06:01.264Z,95822.28
2023-07-04T06:08:28.391Z,95810.34
2023-07-04T06:10:59.165Z,95827.09
2023-07-04T06:13:26.551Z,95861.41
2023-07-04T06:15:53.753Z,95884.19
2023-07-04T06:18:20.877Z,95915.88
2023-07-04T06:20:48.034Z,95909.59
2023-07-04T06:23:15.234Z,95886.50
2023-07-04T06:25:42.317Z,95807.13
2023-07-04T06:28:09.402Z,95746.22
2023-07-04T06:30:39.287Z,95730.84
2023-07-04T06:33:07.433Z,95751.34
2023-07-04T06:35:40.525Z,95798.47
2023-07-04T06:38:07.630Z,95825.56
2023-07-04T06:40:34.833Z,95840.16
2023-07-04T06:43:01.948Z,95867.44
2023-07-04T06:45:29.075Z,95888.97
2023-07-04T06:47:56.164Z,95892.53
2023-07-04T06:50:23.327Z,95891.84
2023-07-04T06:52:50.422Z,95905.97
2023-07-04T06:55:17.546Z,95905.09
2023-07-04T06:57:44.715Z,95910.03
2023-07-04T07:00:12.780Z,95917.41
2023-07-04T07:02:40.000Z,95923.53
2023-07-04T07:05:07.637Z,95918.09
2023-07-04T07:07:34.902Z,95900.41
2023-07-04T07:10:02.014Z,95874.63
2023-07-04T07:12:29.349Z,95850.72
2023-07-04T07:14:56.416Z,95839.75
2023-07-04T07:17:23.580Z,95839.75
2023-07-04T07:19:50.804Z,95834.94
2023-07-04T07:22:18.149Z,95854.34
2023-07-04T07:24:45.750Z,95850.47
2023-07-04T07:27:12.869Z,95834.16
2023-07-04T07:29:39.960Z,95831.19
2023-07-04T07:32:07.711Z,95829.94
2023-07-04T07:34:34.884Z,95829.59
2023-07-04T07:37:01.993Z,95827.44
2023-07-04T07:39:29.204Z,95830.38
2023-07-04T07:41:56.299Z,95813.63
2023-07-04T07:44:23.370Z,95817.22
2023-07-04T07:46:50.495Z,95818.97
2023-07-04T07:49:17.652Z,95804.00
2023-07-04T07:51:44.759Z,95786.41
2023-07-04T07:54:12.204Z,95801.97
2023-07-04T07:56:42.313Z,95801.78
2023-07-04T07:59:09.429Z,95787.41
2023-07-04T08:01:36.599Z,95786.75
2023-07-04T08:04:05.137Z,95790.81
2023-07-04T08:06:36.916Z,95792.31
2023-07-04T08:09:04.860Z,95794.00
2023-07-04T08:11:32.087Z,95804.59
2023-07-04T08:13:59.662Z,95794.06
2023-07-04T08:16:28.764Z,95802.84
2023-07-04T08:18:56.690Z,95796.56
2023-07-04T08:21:24.753Z,95804.44
2023-07-04T08:23:51.963Z,95804.34
2023-07-04T08:26:20.448Z,95810.16
2023-07-04T08:28:47.764Z,95813.56
2023-07-04T08:31:19.039Z,95810.50
2023-07-04T08:33:46.726Z,95809.97
2023-07-04T08:36:14.430Z,95806.28
2023-07-04T08:38:41.661Z,95820.66
2023-07-04T08:41:27.714Z,95817.41
2023-07-04T08:43:57.881Z,95830.50
2023-07-04T08:46:25.314Z,95822.81
2023-07-04T08:48:53.416Z,95829.72
2023-07-04T08:51:23.318Z,95821.03
2023-07-04T08:53:55.043Z,95839.09
2023-07-04T08:56:32.962Z,95838.00
2023-07-04T08:59:06.485Z,95848.91
2023-07-04T09:01:40.370Z,95858.59
2023-07-04T09:04:17.970Z,95853.13
2023-07-04T09:06:50.671Z,95856.56
2023-07-04T09:09:32.732Z,95870.13
2023-07-04T09:11:59.916Z,95868.13
2023-07-04T09:14:37.609Z,95878.91
2023-07-04T09:17:13.339Z,95880.13
2023-07-04T09:19:44.438Z,95881.38
2023-07-04T09:22:11.549Z,95887.69
2023-07-04T09:24:38.617Z,95891.47
2023-07-04T09:27:06.322Z,95884.38
2023-07-04T09:29:33.482Z,95884.88
2023-07-04T09:32:02.162Z,95889.44
2023-07-04T09:34:47.530Z,95891.78
2023-07-04T09:37:16.520Z,95897.34
2023-07-04T09:39:55.934Z,95883.69
2023-07-04T09:42:37.653Z,95893.66
2023-07-04T09:45:13.422Z,95886.47
2023-07-04T09:47:46.039Z,95880.94
2023-07-04T09:50:24.471Z,95879.28
2023-07-04T09:53:02.054Z,95886.59
2023-07-04T09:55:29.493Z,95876.06
2023-07-04T09:58:15.233Z,95880.06
2023-07-04T10:00:44.379Z,95880.34
2023-07-04T10:03:11.966Z,95875.50
2023-07-04T10:05:39.616Z,95865.38
2023-07-04T10:08:08.891Z,95871.25
2023-07-04T10:10:56.629Z,95867.41
2023-07-04T10:13:25.181Z,95867.31
2023-07-04T10:15:52.534Z,95857.81
2023-07-04T10:18:27.464Z,95860.06
2023-07-04T10:20:56.514Z,95858.91
2023-07-04T10:23:24.602Z,95862.44
2023-07-04T10:25:52.828Z,95858.19
2023-07-04T10:28:22.681Z,95849.22
2023-07-04T10:30:51.716Z,95840.31
2023-07-04T10:33:25.511Z,95848.25
2023-07-04T10:35:52.764Z,95856.56
2023-07-04T10:38:38.555Z,95844.06
2023-07-04T10:41:13.678Z,95838.06
2023-07-04T10:43:44.178Z,95842.34
2023-07-04T10:46:13.628Z,95844.25
2023-07-04T10:48:41.147Z,95847.28
2023-07-04T10:51:11.204Z,95834.19
2023-07-04T10:53:38.420Z,95838.69
2023-07-04T10:56:14.501Z,95826.06
2023-07-04T10:58:44.163Z,95824.91
2023-07-04T11:01:15.330Z,95815.72
2023-07-04T11:03:58.843Z,95814.13
2023-07-04T11:06:30.719Z,95813.88
2023-07-04T11:08:58.924Z,95807.53
2023-07-04T11:11:29.829Z,95807.19
2023-07-04T11:14:04.716Z,95807.13
2023-07-04T11:16:33.162Z,95812.03
2023-07-04T11:19:05.778Z,95804.31
2023-07-04T11:21:32.887Z,95796.72
2023-07-04T11:24:16.544Z,95796.16
2023-07-04T11:26:51.210Z,95795.81
2023-07-04T11:29:20.226Z,95802.03
2023-07-04T11:32:03.322Z,95799.97
2023-07-04T11:34:44.819Z,95804.72
2023-07-04T11:37:16.139Z,95803.69
2023-07-04T11:39:43.603Z,95790.38
2023-07-04T11:42:16.422Z,95800.56
2023-07-04T11:44:52.593Z,95785.81
2023-07-04T11:47:34.652Z,95785.38
2023-07-04T11:50:03.138Z,95793.31
2023-07-04T11:52:33.041Z,95778.50
2023-07-04T11:55:01.810Z,95788.44
2023-07-04T11:57:47.398Z,95772.16
2023-07-04T12:00:29.892Z,95765.94
2023-07-04T12:02:57.575Z,95766.25
2023-07-04T12:05:32.500Z,95762.72
2023-07-04T12:08:06.182Z,95755.22
2023-07-04T12:10:33.500Z,95763.41
2023-07-04T12:13:02.640Z,95761.28
2023-07-04T12:15:31.350Z,95763.59
2023-07-04T12:18:02.239Z,95748.75
2023-07-04T12:20:30.968Z,95752.22
2023-07-04T12:22:59.360Z,95752.34
2023-07-04T12:25:27.640Z,95752.22
2023-07-04T12:27:57.232Z,95742.31
2023-07-04T12:30:24.549Z,95747.59
2023-07-04T12:32:53.503Z,95748.94
2023-07-04T12:35:28.104Z,95736.75
2023-07-04T12:37:57.102Z,95740.78
2023-07-04T12:40:31.552Z,95739.38
2023-07-04T12:44:37.421Z,95744.72
2023-07-04T12:50:51.172Z,95739.00
2023-07-04T12:53:19.079Z,95726.41
2023-07-04T12:55:46.790Z,95724.56
2023-07-04T12:58:15.103Z,95723.16
2023-07-04T13:00:46.903Z,95722.31
2023-07-04T13:03:19.045Z,95720.69
2023-07-04T13:05:47.474Z,95717.81
2023-07-04T13:08:16.423Z,95713.50
2023-07-04T13:10:49.310Z,95718.81
2023-07-04T13:13:36.304Z,95729.00
2023-07-04T13:16:21.770Z,95717.59
2023-07-04T13:18:49.570Z,95716.44
2023-07-04T13:21:50.090Z,95721.75
2023-07-04T13:27:14.975Z,95732.94
2023-07-04T13:34:55.426Z,95719.09
2023-07-04T13:37:25.690Z,95716.75
2023-07-04T13:39:56.616Z,95706.53
2023-07-04T13:42:24.461Z,95715.13
2023-07-04T13:47:22.108Z,95704.81
2023-07-04T13:49:49.304Z,95704.03
2023-07-04T13:52:16.513Z,95707.19
2023-07-04T13:54:43.676Z,95702.47
2023-07-04T13:57:10.844Z,95697.97
2023-07-04T13:59:37.930Z,95704.97
2023-07-04T14:07:05.497Z,95686.81
2023-07-04T14:09:32.896Z,95691.25
2023-07-04T14:12:00.134Z,95691.22
2023-07-04T14:22:08.855Z,95668.28
2023-07-04T14:24:36.092Z,95669.63
2023-07-04T14:27:03.428Z,95679.22
2023-07-04T14:29:30.547Z,95673.53
2023-07-04T14:31:57.709Z,95667.94
2023-07-04T14:34:27.176Z,95655.28
2023-07-04T14:36:54.257Z,95662.56
2023-07-04T14:39:21.835Z,95667.13
2023-07-04T14:44:19.299Z,95662.41
2023-07-04T14:46:46.393Z,95666.34
2023-07-04T14:49:13.565Z,95658.50
2023-07-04T14:51:40.842Z,95650.16
2023-07-04T14:54:08.178Z,95661.56
2023-07-04T14:56:45.724Z,95653.28
2023-07-04T14:59:17.973Z,95658.59
2023-07-04T15:01:45.082Z,95650.22
2023-07-04T15:04:12.419Z,95651.81
2023-07-04T15:06:39.497Z,95649.91
2023-07-04T15:09:06.647Z,95650.56
2023-07-04T15:11:33.909Z,95646.81
2023-07-04T15:14:01.435Z,95651.66
2023-07-04T15:16:30.045Z,95634.88
2023-07-04T15:18:57.609Z,95646.59
2023-07-04T15:21:24.679Z,95641.44
2023-07-04T15:23:51.831Z,95644.06
2023-07-04T15:26:27.359Z,95634.91
2023-07-04T15:28:55.434Z,95633.69
2023-07-04T15:31:22.681Z,95633.31
2023-07-04T15:33:51.157Z,95627.47
2023-07-04T15:36:18.565Z,95630.47
2023-07-04T15:38:46.252Z,95623.34
2023-07-04T15:41:13.391Z,95629.09
2023-07-04T15:43:40.871Z,95621.47
2023-07-04T15:46:11.994Z,95625.28
2023-07-04T15:48:40.317Z,95624.88
2023-07-04T15:51:08.557Z,95618.09
2023-07-04T15:53:35.728Z,95623.94
2023-07-04T15:56:04.127Z,95620.84
2023-07-04T15:58:31.595Z,95616.41
2023-07-04T16:00:59.860Z,95623.41
2023-07-04T16:03:27.556Z,95624.75
2023-07-04T16:05:55.938Z,95627.88
2023-07-04T16:08:23.721Z,95627.72
2023-07-04T16:10:55.033Z,95629.34
2023-07-04T16:13:22.242Z,95623.88
2023-07-04T16:15:49.634Z,95624.31
2023-07-04T16:18:16.907Z,95615.75
2023-07-04T16:20:44.826Z,95622.72
2023-07-04T16:23:12.271Z,95615.63
2023-07-04T16:25:42.819Z,95619.63
2023-07-04T16:28:10.287Z,95622.69
2023-07-04T16:30:37.429Z,95621.69
2023-07-04T16:33:04.620Z,95619.31
2023-07-04T16:35:31.743Z,95614.81
2023-07-04T16:37:58.923Z,95616.88
2023-07-04T16:40:26.326Z,95609.78
2023-07-04T16:42:53.429Z,95606.13
2023-07-04T16:45:20.611Z,95610.53
2023-07-04T16:47:47.831Z,95616.03
2023-07-04T16:50:30.012Z,95616.44
2023-07-04T16:53:00.219Z,95612.84
2023-07-04T16:55:27.840Z,95620.53
2023-07-04T16:57:55.217Z,95612.59
2023-07-04T17:00:22.354Z,95618.09
2023-07-04T17:02:49.715Z,95615.34
2023-07-04T17:05:17.432Z,95616.94
2023-07-04T17:07:44.564Z,95623.16
2023-07-04T17:10:11.759Z,95615.41
2023-07-04T17:12:39.163Z,95626.34
2023-07-04T17:15:06.560Z,95620.50
2023-07-04T17:17:33.668Z,95623.53
2023-07-04T17:20:01.015Z,95624.63
2023-07-04T17:22:28.122Z,95629.59
2023-07-04T17:25:07.569Z,95624.81
2023-07-04T17:27:40.134Z,95632.44
2023-07-04T17:30:07.659Z,95637.78
2023-07-04T17:32:34.886Z,95629.25
2023-07-04T17:35:02.109Z,95627.66
2023-07-04T17:37:29.273Z,95632.00
2023-07-04T17:39:56.473Z,95630.41
2023-07-04T17:42:24.622Z,95641.25
2023-07-04T17:44:51.936Z,95632.31
2023-07-04T17:47:19.616Z,95639.97
2023-07-04T17:49:47.024Z,95635.63
2023-07-04T17:52:14.921Z,95637.22
2023-07-04T17:54:42.861Z,95636.44
2023-07-04T17:57:21.495Z,95643.44
2023-07-04T17:59:54.116Z,95646.47
2023-07-04T18:02:21.294Z,95644.72
2023-07-04T18:04:48.442Z,95652.78
2023-07-04T18:07:16.333Z,95651.09
2023-07-04T18:09:48.098Z,95649.44
2023-07-04T18:12:16.328Z,95651.81
2023-07-04T18:14:43.618Z,95651.06
2023-07-04T18:17:10.787Z,95649.13
2023-07-04T18:19:38.685Z,95661.56
2023-07-04T18:22:05.903Z,95653.19
2023-07-04T18:24:34.873Z,95654.63
2023-07-04T18:27:02.124Z,95654.91
2023-07-04T18:29:29.178Z,95652.97
2023-07-04T18:31:59.375Z,95659.94
2023-07-04T18:34:26.659Z,95655.34
2023-07-04T18:36:55.875Z,95656.94
2023-07-04T18:39:23.065Z,95655.00
2023-07-04T18:41:50.315Z,95650.72
2023-07-04T18:44:17.454Z,95647.72
2023-07-04T18:46:45.504Z,95654.69
2023-07-04T18:49:17.158Z,95662.31
2023-07-04T18:51:44.380Z,95660.16
2023-07-04T18:54:12.974Z,95653.09
2023-07-04T18:56:41.894Z,95652.03
2023-07-04T18:59:09.739Z,95650.28
2023-07-04T19:01:36.919Z,95657.56
2023-07-04T19:04:04.183Z,95657.47
2023-07-04T19:06:33.378Z,95652.91
2023-07-04T19:09:01.470Z,95647.22
2023-07-04T19:11:29.646Z,95649.81
2023-07-04T19:14:17.517Z,95647.22
2023-07-04T19:16:53.052Z,95650.78
2023-07-04T19:19:24.384Z,95641.22
2023-07-04T19:21:55.822Z,95639.22
2023-07-04T19:24:23.689Z,95620.00
2023-07-04T19:26:51.247Z,95582.47
2023-07-04T19:29:18.884Z,95545.16
2023-07-04T19:31:50.477Z,95565.00
2023-07-04T19:34:18.091Z,95577.16
2023-07-04T19:36:45.621Z,95578.75
2023-07-04T19:39:12.849Z,95580.00
2023-07-04T19:41:39.973Z,95560.50
2023-07-04T19:44:07.215Z,95537.78
2023-07-04T19:46:34.418Z,95523.34
2023-07-04T19:49:02.654Z,95516.94
2023-07-04T19:51:29.843Z,95511.47
2023-07-04T19:53:59.125Z,95510.00
2023-07-04T19:56:27.412Z,95519.31
2023-07-04T19:58:54.552Z,95522.06
2023-07-04T20:01:26.338Z,95533.28
2023-07-04T20:03:54.537Z,95530.34
2023-07-04T20:06:22.260Z,95533.78
2023-07-04T20:08:50.173Z,95538.66
2023-07-04T20:11:18.200Z,95538.66
2023-07-04T20:13:45.693Z,95537.75
2023-07-04T20:16:17.811Z,95529.69
2023-07-04T20:18:45.306Z,95534.13
2023-07-04T20:21:12.373Z,95535.72
2023-07-04T20:23:40.295Z,95528.28
2023-07-04T20:26:09.377Z,95529.78
2023-07-04T20:28:38.235Z,95529.34
2023-07-04T20:31:05.430Z,95527.19
2023-07-04T20:33:33.895Z,95527.06
2023-07-04T20:36:01.491Z,95526.81
2023-07-04T20:38:28.624Z,95524.41
2023-07-04T20:41:01.095Z,95525.84
2023-07-04T20:43:28.162Z,95532.47
2023-07-04T20:45:55.536Z,95534.97
2023-07-04T20:48:22.951Z,95542.22
2023-07-04T20:50:50.500Z,95549.50
2023-07-04T20:53:18.183Z,95549.63
2023-07-04T20:55:47.910Z,95552.47
2023-07-04T20:58:15.156Z,95556.16
2023-07-04T21:00:42.333Z,95561.31
2023-07-04T21:03:09.896Z,95567.00
2023-07-04T21:05:37.927Z,95566.66
2023-07-04T21:08:05.465Z,95564.75
2023-07-04T21:10:36.911Z,95567.69
2023-07-04T21:13:04.838Z,95567.47
2023-07-04T21:15:33.033Z,95570.09
2023-07-04T21:18:00.300Z,95567.88
2023-07-04T21:20:27.895Z,95568.09
2023-07-04T21:22:55.080Z,95561.38
2023-07-04T21:25:22.283Z,95559.94
2023-07-04T21:27:49.442Z,95564.13
2023-07-04T21:30:16.632Z,95563.25
2023-07-04T21:32:43.798Z,95564.22
2023-07-04T21:35:10.995Z,95567.28
2023-07-04T21:37:38.167Z,95583.78
2023-07-04T21:40:07.628Z,95587.13
2023-07-04T21:42:35.110Z,95585.06
2023-07-04T21:45:02.229Z,95589.31
2023-07-04T21:47:31.454Z,95604.78
2023-07-04T21:49:58.576Z,95610.09
2023-07-04T21:52:25.643Z,95604.19
2023-07-04T21:54:52.698Z,95608.06
2023-07-04T21:57:19.779Z,95605.38
2023-07-04T21:59:47.041Z,95610.00
2023-07-04T22:02:15.496Z,95606.69
2023-07-04T22:04:42.749Z,95611.75
2023-07-04T22:07:09.877Z,95613.53
2023-07-04T22:09:38.102Z,95609.34
2023-07-04T22:12:05.602Z,95599.44
2023-07-04T22:14:38.157Z,95605.34
2023-07-04T22:17:06.833Z,95604.78
2023-07-04T22:19:34.130Z,95587.22
2023-07-04T22:22:01.285Z,95595.56
2023-07-04T22:24:28.725Z,95598.59
2023-07-04T22:26:56.134Z,95596.06
2023-07-04T22:29:23.256Z,95602.81
2023-07-04T22:31:50.387Z,95608.63
2023-07-04T22:34:17.481Z,95610.31
2023-07-04T22:36:44.544Z,95607.88
2023-07-04T22:39:11.595Z,95606.72
2023-07-04T22:41:38.834Z,95613.84
2023-07-04T22:44:05.940Z,95606.59
2023-07-04T22:46:33.072Z,95614.28
2023-07-04T22:49:00.337Z,95613.69
2023-07-04T22:51:27.508Z,95619.88
2023-07-04T22:53:54.620Z,95618.81
2023-07-04T22:56:22.054Z,95623.34
2023-07-04T22:58:49.145Z,95617.09
2023-07-04T23:01:17.749Z,95620.47
2023-07-04T23:03:45.161Z,95628.16
2023-07-04T23:06:12.537Z,95624.97
2023-07-04T23:08:40.269Z,95624.28
2023-07-04T23:11:07.668Z,95625.59
2023-07-04T23:13:34.899Z,95631.22
2023-07-04T23:16:12.854Z,95628.63
2023-07-04T23:18:42.521Z,95628.50
2023-07-04T23:21:09.904Z,95624.47
2023-07-04T23:23:37.059Z,95623.38
2023-07-04T23:26:08.056Z,95629.28
2023-07-04T23:28:35.181Z,95629.91
2023-07-04T23:31:06.767Z,95627.88
2023-07-04T23:33:33.878Z,95618.25
2023-07-04T23:36:01.332Z,95614.56
2023-07-04T23:38:29.149Z,95621.91
2023-07-04T23:40:56.736Z,95620.81
2023-07-04T23:43:27.235Z,95619.38
2023-07-04T23:45:55.062Z,95618.41
2023-07-04T23:48:23.265Z,95613.63
2023-07-04T23:50:50.614Z,95613.31
2023-07-04T23:53:17.779Z,95611.06
2023-07-04T23:55:44.937Z,95613.13
2023-07-04T23:58:12.117Z,95608.19
